Time;durP1;ratioP1;P1;durP2;ratioP2;P2;SDS_P1;SDS_P2;PMS_P1;PMS_P2;Temp;Humidity;BMP_temperature;BMP_pressure;BME280_temperature;BME280_humidity;BME280_pressure;Samples;Min_cycle;Max_cycle;Signal;HPM_P1;HPM_P2
2021/11/30 00:00:09;;;;;;;5.28;3.13;;;6.50;72.90;;;;;;5110347;28;20051;-71
2021/11/30 00:02:35;;;;;;;5.68;3.13;;;6.50;73.40;;;;;;5113087;27;20031;-71
2021/11/30 00:05:01;;;;;;;4.90;3.40;;;6.50;73.30;;;;;;5106261;28;20028;-71
2021/11/30 00:07:26;;;;;;;4.68;2.85;;;6.60;73.50;;;;;;5110131;28;20028;-71
2021/11/30 00:12:21;;;;;;;5.20;3.00;;;6.60;73.40;;;;;;5112719;28;20024;-71
2021/11/30 00:14:50;;;;;;;4.43;3.15;;;6.60;73.50;;;;;;5107409;28;20480;-71
2021/11/30 00:17:17;;;;;;;6.38;3.00;;;6.50;73.50;;;;;;5110011;28;20047;-71
2021/11/30 00:19:44;;;;;;;5.45;2.90;;;6.60;73.50;;;;;;5109655;28;20110;-71
2021/11/30 00:22:11;;;;;;;4.30;2.83;;;6.50;73.50;;;;;;5109985;28;20020;-71
2021/11/30 00:24:37;;;;;;;4.60;2.95;;;6.50;73.30;;;;;;5111073;28;20031;-71
2021/11/30 00:27:05;;;;;;;4.43;2.83;;;6.60;73.60;;;;;;5112994;28;20042;-70
2021/11/30 00:29:31;;;;;;;4.85;2.97;;;6.60;73.20;;;;;;5109997;28;20027;-72
2021/11/30 00:31:57;;;;;;;5.13;3.08;;;6.60;73.20;;;;;;5109929;28;20016;-70
2021/11/30 00:34:23;;;;;;;5.40;2.95;;;6.60;73.40;;;;;;5109945;28;20100;-70
2021/11/30 00:36:50;;;;;;;4.28;2.78;;;6.50;73.60;;;;;;5092212;28;20438;-70
2021/11/30 00:39:16;;;;;;;4.45;2.92;;;6.50;73.40;;;;;;5112575;28;20020;-70
2021/11/30 00:41:47;;;;;;;4.18;2.72;;;6.50;73.50;;;;;;5110572;28;20076;-71
2021/11/30 00:44:15;;;;;;;4.85;3.10;;;6.50;73.10;;;;;;5110195;28;20019;-70
2021/11/30 00:46:41;;;;;;;6.30;3.03;;;6.50;73.50;;;;;;5109724;28;20051;-70
2021/11/30 00:49:08;;;;;;;5.10;2.88;;;6.40;73.10;;;;;;5109786;28;20020;-70
2021/11/30 00:51:36;;;;;;;4.13;3.00;;;6.40;73.50;;;;;;5110833;28;20085;-70
2021/11/30 00:54:07;;;;;;;5.70;3.42;;;6.50;73.30;;;;;;5112161;28;20052;-71
2021/11/30 00:56:33;;;;;;;5.28;2.78;;;6.50;73.30;;;;;;5109375;28;20039;-70
2021/11/30 00:58:59;;;;;;;5.35;3.15;;;6.50;73.70;;;;;;5109648;28;20016;-70
2021/11/30 01:01:24;;;;;;;4.32;2.85;;;6.50;73.80;;;;;;5111842;27;20047;-70
2021/11/30 01:03:50;;;;;;;5.43;3.13;;;6.50;73.50;;;;;;5109500;28;20068;-70
2021/11/30 01:06:16;;;;;;;4.65;2.85;;;6.50;73.50;;;;;;5112169;28;20034;-70
2021/11/30 01:08:42;;;;;;;4.03;3.03;;;6.40;73.60;;;;;;5109781;28;20547;-69
2021/11/30 01:11:08;;;;;;;3.80;2.40;;;6.40;74.00;;;;;;5109754;28;20133;-70
2021/11/30 01:13:34;;;;;;;5.03;3.00;;;6.40;73.90;;;;;;5109163;28;20027;-70
2021/11/30 01:16:01;;;;;;;3.50;2.58;;;6.50;74.00;;;;;;5109146;28;20384;-70
2021/11/30 01:18:26;;;;;;;5.03;2.70;;;6.50;73.90;;;;;;5127347;27;20016;-70
2021/11/30 01:20:52;;;;;;;3.78;2.53;;;6.50;74.00;;;;;;5097292;28;20027;-70
2021/11/30 01:23:19;;;;;;;4.68;2.80;;;6.60;75.00;;;;;;5110215;28;20028;-70
2021/11/30 01:25:44;;;;;;;3.63;2.60;;;6.60;74.40;;;;;;5109032;28;20046;-70
2021/11/30 01:28:10;;;;;;;3.97;2.90;;;6.60;74.40;;;;;;5109040;28;20016;-70
2021/11/30 01:30:36;;;;;;;4.85;2.72;;;6.60;74.00;;;;;;5109776;28;20020;-70
2021/11/30 01:33:05;;;;;;;3.63;2.55;;;6.70;74.30;;;;;;5111258;28;20430;-70
2021/11/30 01:35:32;;;;;;;3.58;2.38;;;6.70;74.00;;;;;;5108745;28;20032;-70
2021/11/30 01:37:58;;;;;;;3.78;2.88;;;6.70;74.20;;;;;;5108259;28;20043;-70
2021/11/30 01:40:25;;;;;;;3.40;2.40;;;6.70;74.40;;;;;;5109085;28;20031;-70
2021/11/30 01:42:52;;;;;;;5.22;2.50;;;6.70;74.30;;;;;;5108958;28;20450;-70
2021/11/30 01:45:30;;;;;;;3.60;2.60;;;6.80;74.20;;;;;;5110892;28;20015;-70
2021/11/30 01:50:32;;;;;;;2.85;2.30;;;6.80;74.60;;;;;;5108728;28;20027;-71
2021/11/30 01:52:59;;;;;;;3.35;2.25;;;6.90;74.40;;;;;;5107973;28;20487;-70
2021/11/30 01:55:27;;;;;;;2.92;2.00;;;6.90;74.50;;;;;;5108358;28;20119;-70
2021/11/30 01:57:53;;;;;;;3.00;2.40;;;6.90;74.80;;;;;;5108440;28;20028;-71
2021/11/30 02:00:20;;;;;;;3.25;2.38;;;7.00;74.50;;;;;;5111334;28;20027;-70
2021/11/30 02:02:47;;;;;;;4.15;2.13;;;7.00;74.80;;;;;;5112262;27;20376;-70
2021/11/30 02:05:13;;;;;;;4.20;2.55;;;7.10;74.20;;;;;;5108430;28;20487;-70
2021/11/30 02:07:40;;;;;;;2.75;2.20;;;7.10;74.40;;;;;;5107903;28;20071;-70
2021/11/30 02:10:08;;;;;;;3.08;2.20;;;7.10;74.60;;;;;;5091808;28;20373;-71
2021/11/30 02:12:36;;;;;;;3.40;2.10;;;7.20;74.60;;;;;;5109470;28;20059;-70
2021/11/30 02:15:04;;;;;;;3.67;2.13;;;7.20;74.60;;;;;;5111321;28;20042;-71
2021/11/30 02:17:30;;;;;;;2.95;2.13;;;7.20;74.50;;;;;;5118601;28;20027;-71
2021/11/30 02:19:58;;;;;;;3.25;2.03;;;7.30;75.50;;;;;;5115419;28;20035;-71
2021/11/30 02:22:24;;;;;;;2.95;2.22;;;7.20;74.50;;;;;;5107995;28;20100;-71
2021/11/30 02:24:50;;;;;;;3.80;2.20;;;7.30;74.40;;;;;;5108360;28;20016;-71
2021/11/30 02:27:17;;;;;;;3.83;2.25;;;7.30;74.20;;;;;;5111127;28;20437;-70
2021/11/30 02:29:42;;;;;;;3.67;2.20;;;7.30;74.20;;;;;;5109435;28;20020;-71
2021/11/30 02:32:09;;;;;;;2.72;2.05;;;7.30;74.30;;;;;;5108121;28;20027;-70
2021/11/30 02:34:34;;;;;;;3.33;1.90;;;7.30;74.60;;;;;;5107991;28;20027;-70
2021/11/30 02:37:07;;;;;;;3.95;2.28;;;7.40;74.20;;;;;;5107729;28;20557;-71
2021/11/30 02:39:34;;;;;;;3.75;2.30;;;7.30;74.20;;;;;;5109734;28;20024;-70
2021/11/30 02:42:03;;;;;;;2.53;1.98;;;7.30;74.10;;;;;;5110893;28;20027;-70
2021/11/30 02:44:30;;;;;;;3.40;2.30;;;7.30;74.20;;;;;;5109821;28;20023;-70
2021/11/30 02:46:58;;;;;;;3.13;2.47;;;7.30;75.30;;;;;;5111866;28;20073;-70
2021/11/30 02:49:28;;;;;;;3.70;2.17;;;7.20;75.40;;;;;;5079993;28;20031;-70
2021/11/30 02:52:02;;;;;;;3.22;2.00;;;7.20;74.50;;;;;;5094051;28;20028;-70
2021/11/30 02:54:28;;;;;;;3.15;2.10;;;7.30;74.60;;;;;;5075624;28;20036;-70
2021/11/30 02:56:56;;;;;;;3.38;2.08;;;7.30;74.40;;;;;;5073228;28;20037;-70
2021/11/30 02:59:23;;;;;;;5.15;2.30;;;7.30;74.40;;;;;;5071590;28;20025;-71
2021/11/30 03:01:59;;;;;;;5.10;2.35;;;7.30;75.00;;;;;;5073797;28;20108;-70
2021/11/30 03:04:25;;;;;;;3.47;2.28;;;7.30;74.80;;;;;;5071428;28;20020;-70
2021/11/30 03:06:52;;;;;;;2.95;2.45;;;7.30;74.80;;;;;;5071409;28;20032;-70
2021/11/30 03:09:18;;;;;;;3.10;2.50;;;7.30;74.90;;;;;;5073672;28;20021;-70
2021/11/30 03:11:44;;;;;;;3.80;2.70;;;7.30;74.70;;;;;;5072592;28;20031;-71
2021/11/30 03:14:10;;;;;;;3.53;2.42;;;7.30;74.90;;;;;;5071170;28;20117;-70
2021/11/30 03:16:36;;;;;;;4.28;3.15;;;7.30;75.00;;;;;;5070180;28;20040;-70
2021/11/30 03:19:03;;;;;;;4.32;3.00;;;7.30;75.30;;;;;;5073362;28;20082;-71
2021/11/30 03:21:29;;;;;;;3.88;2.95;;;7.30;75.10;;;;;;5072872;28;20040;-70
2021/11/30 03:23:54;;;;;;;3.95;2.85;;;7.40;75.40;;;;;;5073065;28;20052;-70
2021/11/30 03:26:20;;;;;;;3.80;3.15;;;7.40;75.30;;;;;;5070960;28;20030;-70
2021/11/30 03:28:47;;;;;;;3.53;3.00;;;7.30;75.00;;;;;;5070891;28;20409;-70
2021/11/30 03:34:00;;;;;;;3.53;3.03;;;7.30;75.30;;;;;;5057401;28;20481;-70
2021/11/30 03:36:26;;;;;;;4.80;3.13;;;7.40;75.20;;;;;;5073031;28;20028;-70
2021/11/30 03:38:51;;;;;;;4.03;3.22;;;7.40;75.30;;;;;;5072325;28;20034;-70
2021/11/30 03:41:17;;;;;;;4.28;3.10;;;7.30;75.40;;;;;;5070731;28;20032;-70
2021/11/30 03:43:43;;;;;;;4.18;3.25;;;7.30;75.80;;;;;;5070475;28;20036;-69
2021/11/30 03:46:09;;;;;;;3.97;2.95;;;7.30;75.60;;;;;;5070762;28;20090;-69
2021/11/30 03:48:34;;;;;;;4.25;2.92;;;7.40;75.60;;;;;;5071337;28;20032;-69
2021/11/30 03:51:00;;;;;;;3.20;2.55;;;7.40;75.60;;;;;;5073283;28;20099;-69
2021/11/30 03:53:26;;;;;;;4.00;2.80;;;7.40;75.40;;;;;;5088469;28;20471;-70
2021/11/30 03:55:51;;;;;;;3.55;2.60;;;7.40;75.40;;;;;;5109713;28;20114;-69
2021/11/30 03:58:17;;;;;;;4.57;2.85;;;7.50;75.30;;;;;;5112535;28;20429;-70
2021/11/30 04:00:43;;;;;;;3.63;2.80;;;7.50;75.50;;;;;;5113432;27;20045;-69
2021/11/30 04:03:09;;;;;;;4.30;3.17;;;7.50;75.50;;;;;;5114501;28;20022;-70
2021/11/30 04:05:35;;;;;;;4.13;2.80;;;7.40;75.30;;;;;;5110796;28;20121;-69
2021/11/30 04:08:01;;;;;;;3.55;2.70;;;7.50;75.50;;;;;;5110481;28;20110;-70
2021/11/30 04:10:26;;;;;;;4.90;2.90;;;7.50;75.50;;;;;;5110749;28;20034;-69
2021/11/30 04:12:54;;;;;;;3.88;2.90;;;7.50;76.50;;;;;;5110854;28;20513;-70
2021/11/30 04:15:20;;;;;;;3.25;2.42;;;7.50;75.50;;;;;;5112926;28;20077;-70
2021/11/30 04:17:46;;;;;;;3.72;2.38;;;7.50;75.20;;;;;;5111544;28;20019;-70
2021/11/30 04:20:12;;;;;;;5.05;2.65;;;7.50;75.10;;;;;;5110981;28;20554;-70
2021/11/30 04:22:39;;;;;;;3.30;2.55;;;7.50;75.30;;;;;;5110427;28;20015;-71
2021/11/30 04:25:06;;;;;;;3.67;2.70;;;7.50;75.50;;;;;;5110472;28;20058;-70
2021/11/30 04:27:32;;;;;;;3.97;2.55;;;7.50;75.30;;;;;;5111826;28;20027;-70
2021/11/30 04:29:59;;;;;;;3.00;2.30;;;7.50;75.40;;;;;;5112771;28;20027;-71
2021/11/30 04:32:25;;;;;;;3.78;2.63;;;7.50;75.70;;;;;;5109730;28;20024;-71
2021/11/30 04:34:51;;;;;;;3.78;2.63;;;7.50;75.80;;;;;;5110234;28;20031;-71
2021/11/30 04:37:16;;;;;;;3.33;2.58;;;7.60;76.00;;;;;;5110313;28;20023;-71
2021/11/30 04:39:42;;;;;;;4.90;2.42;;;7.60;75.80;;;;;;5110091;28;20019;-71
2021/11/30 04:42:08;;;;;;;3.17;2.20;;;7.60;75.70;;;;;;5114182;28;20621;-71
2021/11/30 04:44:37;;;;;;;3.33;2.30;;;7.60;75.60;;;;;;5109774;28;20035;-71
2021/11/30 04:47:07;;;;;;;3.90;2.60;;;7.60;75.80;;;;;;5109706;28;20074;-71
2021/11/30 04:52:00;;;;;;;4.50;2.28;;;7.60;76.00;;;;;;5110032;28;20134;-71
2021/11/30 04:54:26;;;;;;;3.50;2.45;;;7.60;76.20;;;;;;5112023;28;20051;-70
2021/11/30 04:56:52;;;;;;;3.92;2.70;;;7.60;76.00;;;;;;5096108;28;20052;-71
2021/11/30 04:59:19;;;;;;;3.78;2.42;;;7.70;76.10;;;;;;5107164;28;20020;-71
2021/11/30 05:01:46;;;;;;;3.45;2.38;;;7.70;76.30;;;;;;5111652;27;20027;-71
2021/11/30 05:04:13;;;;;;;3.72;2.35;;;7.70;76.50;;;;;;5109920;28;20529;-71
2021/11/30 05:06:39;;;;;;;3.67;2.40;;;7.70;76.20;;;;;;5091538;28;20043;-71
2021/11/30 05:09:05;;;;;;;3.00;2.30;;;7.70;76.20;;;;;;5113136;28;20015;-71
2021/11/30 05:11:31;;;;;;;5.10;2.47;;;7.70;76.10;;;;;;5109519;28;20063;-71
2021/11/30 05:13:57;;;;;;;3.90;2.15;;;7.70;76.20;;;;;;5109433;28;20051;-71
2021/11/30 05:16:22;;;;;;;4.25;2.67;;;7.70;76.20;;;;;;5109339;28;20045;-71
2021/11/30 05:18:48;;;;;;;3.95;2.50;;;7.70;76.20;;;;;;5109547;28;20020;-71
2021/11/30 05:21:14;;;;;;;4.70;2.55;;;7.70;76.30;;;;;;5112395;28;20028;-71
2021/11/30 05:23:42;;;;;;;3.95;2.30;;;7.70;76.60;;;;;;5110123;28;20395;-71
2021/11/30 05:26:08;;;;;;;3.85;2.38;;;7.80;76.40;;;;;;5109081;28;20063;-71
2021/11/30 05:28:37;;;;;;;3.28;2.20;;;7.80;76.40;;;;;;5109297;28;20453;-71
2021/11/30 05:31:05;;;;;;;3.63;2.20;;;7.80;76.40;;;;;;5109015;28;20480;-71
2021/11/30 05:33:31;;;;;;;5.00;2.63;;;7.80;76.30;;;;;;5110681;28;20433;-71
2021/11/30 05:35:58;;;;;;;3.40;2.50;;;7.80;76.50;;;;;;5111161;28;20084;-70
2021/11/30 05:38:25;;;;;;;3.72;2.20;;;7.80;76.60;;;;;;5108902;28;20371;-72
2021/11/30 05:40:51;;;;;;;4.35;2.00;;;7.80;76.60;;;;;;5108975;28;20091;-71
2021/11/30 05:43:17;;;;;;;4.70;2.03;;;7.80;76.30;;;;;;5092358;28;20024;-71
2021/11/30 05:45:43;;;;;;;3.05;2.20;;;7.90;76.60;;;;;;5090955;28;20084;-71
2021/11/30 05:48:08;;;;;;;3.28;1.90;;;7.90;76.70;;;;;;5112949;28;20081;-71
2021/11/30 05:50:34;;;;;;;2.83;2.20;;;7.90;76.90;;;;;;5108670;28;20053;-71
2021/11/30 05:53:00;;;;;;;3.45;2.08;;;7.90;76.80;;;;;;5108751;28;20050;-71
2021/11/30 05:55:26;;;;;;;2.88;2.13;;;7.90;76.70;;;;;;5108868;28;20042;-71
2021/11/30 05:57:52;;;;;;;2.42;1.83;;;7.90;77.30;;;;;;5108580;28;20032;-70
2021/11/30 06:00:20;;;;;;;3.92;2.10;;;7.90;77.20;;;;;;5110928;28;20464;-70
2021/11/30 06:05:27;;;;;;;3.33;1.98;;;7.80;77.50;;;;;;5108677;28;20039;-71
2021/11/30 06:07:53;;;;;;;2.83;1.90;;;7.80;77.20;;;;;;5108604;28;20038;-71
2021/11/30 06:10:19;;;;;;;3.45;2.20;;;7.90;77.30;;;;;;5108580;28;20069;-71
2021/11/30 06:12:45;;;;;;;3.42;2.25;;;7.90;77.60;;;;;;5090864;28;20040;-71
2021/11/30 06:15:11;;;;;;;4.40;2.03;;;7.90;77.60;;;;;;5112022;28;20391;-72
2021/11/30 06:17:37;;;;;;;3.13;2.10;;;7.90;77.70;;;;;;5103495;28;20531;-72
2021/11/30 06:20:05;;;;;;;2.80;1.90;;;7.90;77.80;;;;;;5098319;28;20110;-71
2021/11/30 06:22:31;;;;;;;3.30;2.15;;;7.90;78.00;;;;;;5097997;28;20027;-71
2021/11/30 06:24:56;;;;;;;4.85;3.28;;;7.90;77.90;;;;;;5108772;28;20027;-71
2021/11/30 06:27:22;;;;;;;3.65;2.20;;;7.90;78.00;;;;;;5110667;28;20031;-71
2021/11/30 06:29:47;;;;;;;3.47;2.67;;;7.90;78.20;;;;;;5095695;28;20024;-71
2021/11/30 06:32:13;;;;;;;3.42;2.33;;;7.90;78.40;;;;;;5108258;28;20115;-70
2021/11/30 06:34:39;;;;;;;3.60;2.10;;;7.90;78.40;;;;;;5096185;28;20031;-70
2021/11/30 06:37:08;;;;;;;4.13;2.22;;;8.00;78.10;;;;;;5108104;28;20057;-70
2021/11/30 06:39:35;;;;;;;2.03;1.65;;;7.90;78.10;;;;;;5109678;28;20028;-70
2021/11/30 06:42:01;;;;;;;3.33;1.95;;;7.90;78.70;;;;;;5110185;28;20035;-70
2021/11/30 06:44:26;;;;;;;2.88;2.00;;;7.90;78.60;;;;;;5107517;28;20396;-71
2021/11/30 06:46:52;;;;;;;3.55;2.33;;;7.90;79.00;;;;;;5107478;28;20099;-70
2021/11/30 06:49:18;;;;;;;3.85;2.05;;;7.90;79.00;;;;;;5109768;28;20024;-70
2021/11/30 06:51:44;;;;;;;2.70;1.85;;;7.90;79.30;;;;;;5109399;28;20559;-70
2021/11/30 06:54:09;;;;;;;3.13;1.70;;;7.90;79.50;;;;;;5108996;28;20496;-70
2021/11/30 06:56:35;;;;;;;4.05;2.00;;;7.90;79.50;;;;;;5115834;28;20046;-70
2021/11/30 06:59:01;;;;;;;2.83;1.85;;;7.90;79.70;;;;;;5115344;28;20024;-70
2021/11/30 07:01:28;;;;;;;5.45;2.20;;;8.00;80.10;;;;;;5115641;28;20146;-70
2021/11/30 07:03:54;;;;;;;3.45;2.05;;;8.00;80.10;;;;;;5124290;28;20039;-70
2021/11/30 07:08:55;;;;;;;3.63;2.40;;;8.10;79.90;;;;;;5119279;28;20038;-70
2021/11/30 07:11:54;;;;;;;2.58;1.83;;;8.10;80.30;;;;;;5112134;27;20051;-70
2021/11/30 07:14:19;;;;;;;3.88;1.88;;;8.00;80.10;;;;;;5111785;28;20057;-71
2021/11/30 07:16:47;;;;;;;3.75;1.80;;;8.00;80.50;;;;;;5117389;28;20063;-71
2021/11/30 07:19:13;;;;;;;4.13;1.67;;;8.00;80.60;;;;;;5106643;28;20019;-71
2021/11/30 07:21:39;;;;;;;1.83;1.35;;;8.00;80.60;;;;;;5107997;28;20032;-71
2021/11/30 07:24:05;;;;;;;3.30;1.85;;;8.00;81.20;;;;;;5110420;28;20035;-71
2021/11/30 07:26:31;;;;;;;3.88;1.63;;;8.00;81.60;;;;;;5107450;28;20020;-71
2021/11/30 07:28:57;;;;;;;2.50;1.60;;;8.00;81.90;;;;;;5107822;28;20024;-70
2021/11/30 07:31:23;;;;;;;3.33;2.03;;;8.00;82.60;;;;;;5109555;28;20510;-70
2021/11/30 07:33:49;;;;;;;3.72;2.67;;;8.00;82.00;;;;;;5111441;28;20073;-71
2021/11/30 07:36:17;;;;;;;4.15;1.88;;;8.00;82.10;;;;;;5114268;28;20494;-71
2021/11/30 07:38:46;;;;;;;2.55;1.60;;;8.10;82.10;;;;;;5112034;28;20028;-73
2021/11/30 07:41:13;;;;;;;2.40;1.80;;;8.10;82.70;;;;;;5100323;28;20501;-73
2021/11/30 07:43:39;;;;;;;2.63;1.60;;;8.10;82.00;;;;;;5112393;28;20077;-72
2021/11/30 07:46:06;;;;;;;2.67;1.80;;;8.20;82.30;;;;;;5110813;28;20024;-72
2021/11/30 07:48:32;;;;;;;2.28;1.52;;;8.20;82.50;;;;;;5112402;28;20015;-72
2021/11/30 07:51:00;;;;;;;2.90;1.45;;;8.20;82.20;;;;;;5113294;28;20085;-71
2021/11/30 07:53:25;;;;;;;1.90;1.50;;;8.20;82.30;;;;;;5111275;28;20040;-71
2021/11/30 07:55:52;;;;;;;3.55;1.63;;;8.20;82.70;;;;;;5110996;28;20066;-70
2021/11/30 07:58:19;;;;;;;1.48;1.30;;;8.20;82.40;;;;;;5111943;28;20046;-70
2021/11/30 08:00:46;;;;;;;3.03;1.85;;;8.30;82.60;;;;;;5112483;27;20024;-70
2021/11/30 08:03:12;;;;;;;6.82;2.83;;;8.30;82.50;;;;;;5114367;28;20145;-70
2021/11/30 08:05:37;;;;;;;2.20;1.52;;;8.30;82.30;;;;;;5110025;28;20103;-69
2021/11/30 08:08:03;;;;;;;4.13;1.55;;;8.30;82.40;;;;;;5111436;28;20028;-70
2021/11/30 08:10:29;;;;;;;3.53;1.60;;;8.30;82.40;;;;;;5093640;28;20480;-69
2021/11/30 08:12:56;;;;;;;3.05;1.80;;;8.30;82.40;;;;;;5111649;28;20039;-70
2021/11/30 08:15:21;;;;;;;3.58;1.65;;;8.30;82.70;;;;;;5110312;28;20475;-70
2021/11/30 08:17:47;;;;;;;3.80;1.70;;;8.40;82.80;;;;;;5113015;28;20111;-70
2021/11/30 08:20:13;;;;;;;2.75;1.38;;;8.40;82.50;;;;;;5112559;28;20031;-70
2021/11/30 08:22:41;;;;;;;4.10;1.95;;;8.40;82.90;;;;;;5094185;28;20149;-72
2021/11/30 08:25:09;;;;;;;3.25;1.92;;;8.40;83.30;;;;;;5109924;28;20516;-72
2021/11/30 08:27:35;;;;;;;3.55;2.00;;;8.40;83.00;;;;;;5109004;28;20035;-73
2021/11/30 08:30:01;;;;;;;2.85;1.75;;;8.50;83.20;;;;;;5112676;28;20027;-71
2021/11/30 08:32:28;;;;;;;2.55;1.80;;;8.60;83.40;;;;;;5111208;28;20027;-70
2021/11/30 08:34:54;;;;;;;3.50;1.75;;;8.60;84.20;;;;;;5107023;28;20027;-71
2021/11/30 08:37:21;;;;;;;3.50;1.77;;;8.60;83.50;;;;;;5111426;28;20039;-71
2021/11/30 08:39:49;;;;;;;3.55;1.83;;;8.60;83.40;;;;;;5110849;28;20027;-72
2021/11/30 08:42:16;;;;;;;3.17;2.08;;;8.60;83.30;;;;;;5112513;28;20019;-71
2021/11/30 08:44:42;;;;;;;2.70;1.90;;;8.60;83.20;;;;;;5112126;28;20567;-72
2021/11/30 08:47:10;;;;;;;3.70;2.10;;;8.70;83.40;;;;;;5095400;28;20038;-72
2021/11/30 08:49:36;;;;;;;2.50;1.90;;;8.70;83.60;;;;;;5111708;28;20024;-71
2021/11/30 08:52:05;;;;;;;3.17;2.03;;;8.60;83.40;;;;;;5111635;28;20032;-72
2021/11/30 08:54:32;;;;;;;2.92;1.75;;;8.70;83.50;;;;;;5110252;28;20051;-71
2021/11/30 08:56:59;;;;;;;3.15;1.83;;;8.60;83.40;;;;;;5112654;28;20389;-70
2021/11/30 08:59:25;;;;;;;3.38;1.98;;;8.60;83.60;;;;;;5110486;28;20077;-68
2021/11/30 09:01:52;;;;;;;2.95;1.90;;;8.60;83.60;;;;;;5087563;28;20088;-68
2021/11/30 09:04:17;;;;;;;3.17;1.77;;;8.70;84.00;;;;;;5108118;28;20077;-68
2021/11/30 09:06:43;;;;;;;2.25;1.83;;;8.70;85.00;;;;;;5110996;27;20449;-68
2021/11/30 09:09:10;;;;;;;2.33;1.75;;;8.80;83.90;;;;;;5129357;27;20023;-68
2021/11/30 09:11:37;;;;;;;2.47;1.77;;;8.90;84.60;;;;;;5103320;27;20027;-68
2021/11/30 09:14:04;;;;;;;4.53;2.35;;;9.10;84.20;;;;;;5110453;27;20069;-68
2021/11/30 09:16:30;;;;;;;4.05;2.00;;;9.20;84.10;;;;;;5114014;27;20032;-68
2021/11/30 09:18:56;;;;;;;3.13;2.08;;;9.30;83.50;;;;;;5112139;27;20028;-70
2021/11/30 09:21:23;;;;;;;4.03;2.30;;;9.20;83.70;;;;;;5109281;28;20035;-68
2021/11/30 09:23:49;;;;;;;3.95;2.05;;;9.30;83.50;;;;;;5108315;28;20027;-68
2021/11/30 09:26:14;;;;;;;2.90;1.60;;;9.40;84.10;;;;;;5107672;28;20487;-68
2021/11/30 09:28:40;;;;;;;5.05;2.10;;;9.50;83.60;;;;;;5108330;28;20474;-68
2021/11/30 09:31:07;;;;;;;3.08;1.90;;;9.60;84.00;;;;;;5107308;28;20030;-68
2021/11/30 09:33:33;;;;;;;2.78;1.90;;;9.80;84.00;;;;;;5109232;28;20118;-68
2021/11/30 09:35:59;;;;;;;5.57;2.20;;;10.10;83.70;;;;;;5109753;28;20549;-71
2021/11/30 09:38:26;;;;;;;4.38;2.40;;;10.10;83.20;;;;;;5108422;28;20027;-69
2021/11/30 09:40:57;;;;;;;2.55;1.83;;;10.10;82.70;;;;;;5108665;28;20031;-68
2021/11/30 09:43:24;;;;;;;4.75;1.92;;;10.10;82.60;;;;;;5109230;28;20024;-68
2021/11/30 09:45:50;;;;;;;4.18;2.28;;;10.10;82.40;;;;;;5108300;28;20032;-69
2021/11/30 09:48:16;;;;;;;2.75;1.98;;;10.10;82.40;;;;;;5111082;28;20434;-68
2021/11/30 09:50:45;;;;;;;4.07;2.20;;;10.00;82.30;;;;;;5110686;28;20034;-68
2021/11/30 09:53:11;;;;;;;2.85;2.20;;;10.00;82.50;;;;;;5106125;28;20051;-68
2021/11/30 09:55:38;;;;;;;4.70;2.30;;;10.00;83.20;;;;;;5108570;28;20039;-68
2021/11/30 09:58:05;;;;;;;2.90;1.98;;;10.00;83.10;;;;;;5105832;28;20059;-68
2021/11/30 10:00:34;;;;;;;2.97;1.98;;;10.10;83.40;;;;;;5109974;28;20502;-68
2021/11/30 10:03:00;;;;;;;3.47;2.05;;;10.10;83.10;;;;;;5110476;28;20022;-68
2021/11/30 10:05:26;;;;;;;4.15;2.00;;;10.00;83.40;;;;;;5093131;28;20101;-68
2021/11/30 10:07:54;;;;;;;3.92;2.00;;;10.00;84.20;;;;;;5095408;28;20023;-68
2021/11/30 10:10:26;;;;;;;2.90;2.10;;;10.00;84.00;;;;;;5108407;28;20023;-68
2021/11/30 10:13:05;;;;;;;2.85;1.90;;;10.00;83.80;;;;;;5105980;28;20054;-68
2021/11/30 10:16:08;;;;;;;3.17;2.17;;;10.00;83.40;;;;;;5095318;28;20404;-69
2021/11/30 10:18:36;;;;;;;3.78;1.83;;;10.00;83.90;;;;;;5107577;28;20043;-68
2021/11/30 10:21:20;;;;;;;5.03;2.45;;;10.00;84.40;;;;;;5109120;28;20437;-69
2021/11/30 10:23:52;;;;;;;3.25;1.83;;;10.00;84.10;;;;;;5094545;28;20072;-68
2021/11/30 10:26:28;;;;;;;3.60;2.13;;;10.10;84.00;;;;;;5107748;28;20023;-68
2021/11/30 10:28:57;;;;;;;3.00;1.85;;;10.10;84.20;;;;;;5108252;28;20019;-69
2021/11/30 10:31:28;;;;;;;2.72;1.92;;;10.10;84.40;;;;;;5109980;28;20019;-68
2021/11/30 10:33:54;;;;;;;2.95;2.00;;;10.00;83.90;;;;;;5109746;28;20032;-68
2021/11/30 10:36:19;;;;;;;4.60;2.03;;;10.10;85.00;;;;;;5109653;28;20039;-68
2021/11/30 10:38:45;;;;;;;4.20;2.53;;;10.10;84.60;;;;;;5097480;28;20028;-68
2021/11/30 10:41:16;;;;;;;4.15;2.20;;;10.10;84.50;;;;;;5108096;28;20104;-69
2021/11/30 10:43:57;;;;;;;3.47;2.45;;;10.10;84.40;;;;;;5109239;28;20034;-68
2021/11/30 10:46:31;;;;;;;4.35;2.17;;;10.20;84.70;;;;;;5107035;28;20031;-68
2021/11/30 10:48:58;;;;;;;3.45;2.45;;;10.20;84.30;;;;;;5107047;28;20059;-68
2021/11/30 10:51:27;;;;;;;3.70;2.13;;;10.20;84.50;;;;;;5109170;28;20035;-70
2021/11/30 10:53:57;;;;;;;3.05;2.20;;;10.30;83.90;;;;;;5103502;28;20047;-67
2021/11/30 10:56:23;;;;;;;5.30;2.42;;;10.20;84.20;;;;;;5109541;28;20148;-68
2021/11/30 10:58:53;;;;;;;3.20;2.20;;;10.30;84.80;;;;;;5109380;28;20440;-67
2021/11/30 11:01:21;;;;;;;3.55;2.53;;;10.40;84.30;;;;;;5110500;28;20026;-73
2021/11/30 11:04:12;;;;;;;5.68;2.35;;;10.40;84.80;;;;;;5106976;28;20020;-69
2021/11/30 11:06:38;;;;;;;3.33;2.30;;;10.60;84.80;;;;;;5109577;28;20168;-67
2021/11/30 11:09:10;;;;;;;5.55;2.28;;;10.80;84.70;;;;;;5109828;28;20012;-66
2021/11/30 11:11:43;;;;;;;3.67;2.33;;;10.90;84.10;;;;;;5102211;28;20034;-68
2021/11/30 11:14:20;;;;;;;2.85;2.25;;;11.00;84.10;;;;;;5113388;28;20110;-68
2021/11/30 11:16:51;;;;;;;3.13;2.35;;;11.20;84.80;;;;;;5112992;28;20047;-67
2021/11/30 11:19:19;;;;;;;3.05;2.13;;;11.70;86.10;;;;;;5109250;28;20012;-68
2021/11/30 11:21:45;;;;;;;4.13;2.63;;;12.60;88.00;;;;;;5112986;28;20425;-68
2021/11/30 11:24:25;;;;;;;4.00;2.15;;;13.70;87.00;;;;;;5114896;28;20381;-67
2021/11/30 11:26:55;;;;;;;3.28;2.35;;;14.50;82.50;;;;;;5114328;28;20028;-67
2021/11/30 11:29:24;;;;;;;3.08;2.05;;;15.00;81.00;;;;;;5111148;28;20031;-67
2021/11/30 11:32:02;;;;;;;4.35;2.30;;;15.00;76.00;;;;;;5102099;28;20208;-67
2021/11/30 11:34:31;;;;;;;3.22;2.00;;;14.50;75.20;;;;;;5111124;28;20511;-68
2021/11/30 11:36:59;;;;;;;4.90;2.40;;;14.30;76.20;;;;;;5092804;28;20043;-66
2021/11/30 11:39:26;;;;;;;3.22;1.98;;;14.30;77.00;;;;;;5112738;28;20011;-67
2021/11/30 11:41:55;;;;;;;3.70;2.17;;;14.20;75.40;;;;;;5114324;28;20032;-66
2021/11/30 11:44:21;;;;;;;2.55;2.30;;;14.30;77.30;;;;;;5110247;28;20016;-68
2021/11/30 11:46:48;;;;;;;4.05;2.03;;;14.20;76.70;;;;;;5110100;28;20035;-68
2021/11/30 11:49:20;;;;;;;2.85;1.90;;;14.30;77.10;;;;;;5096216;28;20043;-69
2021/11/30 11:51:48;;;;;;;2.10;1.90;;;14.00;74.70;;;;;;5109949;28;20050;-66
2021/11/30 11:54:29;;;;;;;3.10;1.90;;;13.70;75.80;;;;;;5080288;28;20048;-66
2021/11/30 11:57:03;;;;;;;3.40;1.90;;;13.40;76.30;;;;;;5070154;28;20048;-68
2021/11/30 11:59:40;;;;;;;3.28;1.92;;;13.20;76.80;;;;;;5070864;28;20805;-68
2021/11/30 12:02:24;;;;;;;3.25;1.80;;;12.90;77.20;;;;;;5068066;28;20013;-68
2021/11/30 12:04:59;;;;;;;2.03;1.73;;;12.70;78.20;;;;;;5070164;28;20500;-67
2021/11/30 12:07:28;;;;;;;2.42;1.58;;;12.50;78.70;;;;;;5068026;28;20029;-68
2021/11/30 12:10:15;;;;;;;2.38;1.60;;;12.50;79.40;;;;;;5069943;28;20370;-67
2021/11/30 12:12:52;;;;;;;2.85;1.80;;;12.50;79.60;;;;;;5054040;28;20028;-69
2021/11/30 12:15:18;;;;;;;4.70;1.80;;;12.40;79.40;;;;;;5068514;28;20020;-68
2021/11/30 12:17:43;;;;;;;2.45;1.63;;;12.30;79.80;;;;;;5071431;28;20082;-69
2021/11/30 12:20:12;;;;;;;2.25;1.67;;;12.20;79.60;;;;;;5068487;28;20025;-68
2021/11/30 12:22:47;;;;;;;4.00;1.90;;;12.20;80.10;;;;;;5072104;28;20024;-69
2021/11/30 12:25:40;;;;;;;2.40;1.83;;;12.10;80.20;;;;;;5071272;28;20021;-68
2021/11/30 12:28:09;;;;;;;2.83;1.88;;;12.10;80.60;;;;;;5070400;28;20400;-68
2021/11/30 12:30:35;;;;;;;2.53;1.77;;;12.10;81.20;;;;;;5079058;28;20050;-68
2021/11/30 12:33:01;;;;;;;2.72;1.33;;;12.20;81.20;;;;;;5075074;28;20105;-68
2021/11/30 12:35:44;;;;;;;3.13;1.50;;;12.10;80.90;;;;;;5068850;28;20396;-68
2021/11/30 12:38:21;;;;;;;2.28;1.60;;;12.20;81.20;;;;;;5070985;28;20032;-68
2021/11/30 12:40:49;;;;;;;2.88;1.40;;;12.20;81.00;;;;;;5069300;28;20036;-68
2021/11/30 12:43:22;;;;;;;1.73;1.40;;;12.20;80.70;;;;;;5068158;28;20025;-69
2021/11/30 12:45:52;;;;;;;3.58;1.40;;;12.20;81.30;;;;;;5067787;28;20045;-69
2021/11/30 12:48:18;;;;;;;1.92;1.10;;;12.30;80.80;;;;;;5075719;28;20417;-70
2021/11/30 12:50:44;;;;;;;3.17;1.10;;;12.30;79.90;;;;;;5070690;28;20024;-73
2021/11/30 12:53:10;;;;;;;1.67;0.73;;;12.30;79.80;;;;;;5086637;27;20051;-72
2021/11/30 12:55:53;;;;;;;2.55;0.68;;;12.30;79.60;;;;;;5095208;28;20030;-70
2021/11/30 12:58:47;;;;;;;3.60;1.00;;;12.40;79.90;;;;;;5110599;27;20031;-72
2021/11/30 13:01:14;;;;;;;1.17;0.73;;;12.50;79.20;;;;;;5098854;27;20063;-68
2021/11/30 13:03:40;;;;;;;1.02;0.50;;;12.60;78.10;;;;;;5106554;27;20499;-69
2021/11/30 13:06:05;;;;;;;1.88;0.40;;;12.60;77.50;;;;;;5122523;27;20024;-69
2021/11/30 13:08:31;;;;;;;1.33;0.43;;;12.50;75.90;;;;;;5108726;27;20028;-68
2021/11/30 13:10:57;;;;;;;2.45;0.73;;;12.50;75.50;;;;;;5112734;27;20027;-68
2021/11/30 13:13:25;;;;;;;1.05;0.32;;;12.50;75.40;;;;;;5108987;27;20047;-68